createdAt,value
2017-12-05T00:02:23.494Z,31.05
2017-12-05T00:07:45.939Z,34.22
2017-12-05T00:10:22.003Z,26.55
2017-12-05T00:12:58.968Z,27.95
2017-12-05T00:15:30.657Z,30.60
2017-12-05T00:18:01.496Z,31.55
2017-12-05T00:20:32.604Z,33.83
2017-12-05T00:23:03.821Z,30.25
2017-12-05T00:25:33.992Z,32.50
2017-12-05T00:28:05.020Z,25.12
2017-12-05T00:30:35.332Z,26.90
2017-12-05T00:33:06.172Z,28.30
2017-12-05T00:35:35.622Z,29.20
2017-12-05T00:38:05.335Z,28.87
2017-12-05T00:40:34.936Z,29.70
2017-12-05T00:43:05.552Z,31.60
2017-12-05T00:45:35.962Z,31.98
2017-12-05T00:48:07.038Z,27.20
2017-12-05T00:50:38.569Z,31.42
2017-12-05T00:53:07.518Z,28.35
2017-12-05T00:55:36.896Z,25.42
2017-12-05T00:58:07.041Z,26.98
2017-12-05T01:00:39.378Z,28.42
2017-12-05T01:03:12.033Z,30.90
2017-12-05T01:05:42.824Z,33.28
2017-12-05T01:08:20.458Z,26.50
2017-12-05T01:11:01.043Z,29.52
2017-12-05T01:13:41.725Z,27.05
2017-12-05T01:16:17.731Z,31.30
2017-12-05T01:18:57.722Z,26.98
2017-12-05T01:21:35.078Z,28.52
2017-12-05T01:24:08.440Z,29.23
2017-12-05T01:26:39.109Z,28.90
2017-12-05T01:29:08.772Z,28.92
2017-12-05T01:31:39.423Z,28.50
2017-12-05T01:34:10.043Z,31.90
2017-12-05T01:36:40.102Z,26.65
2017-12-05T01:39:10.381Z,28.38
2017-12-05T01:41:40.094Z,29.83
2017-12-05T01:44:10.084Z,28.40
2017-12-05T01:46:40.133Z,29.67
2017-12-05T01:49:07.376Z,31.77
2017-12-05T01:51:34.595Z,28.87
2017-12-05T01:54:02.584Z,29.33
2017-12-05T01:56:32.072Z,26.85
2017-12-05T01:59:01.960Z,27.95
2017-12-05T02:01:32.018Z,30.30
2017-12-05T02:04:01.546Z,32.88
2017-12-05T02:06:31.568Z,34.70
2017-12-05T02:09:02.044Z,31.15
2017-12-05T02:11:31.853Z,27.02
2017-12-05T02:14:02.138Z,26.20
2017-12-05T02:16:30.267Z,32.20
2017-12-05T02:18:57.650Z,29.42
2017-12-05T02:21:25.012Z,28.83
2017-12-05T02:23:52.372Z,31.55
2017-12-05T02:26:19.501Z,27.83
2017-12-05T02:28:46.906Z,29.73
2017-12-05T02:31:15.480Z,27.10
2017-12-05T02:33:44.739Z,29.10
2017-12-05T02:36:15.532Z,30.60
2017-12-05T02:38:48.414Z,30.80
2017-12-05T02:41:17.567Z,31.45
2017-12-05T02:43:44.799Z,26.73
2017-12-05T02:46:14.532Z,31.42
2017-12-05T02:48:41.500Z,26.25
2017-12-05T02:51:08.593Z,31.30
2017-12-05T02:53:36.352Z,30.45
2017-12-05T02:56:06.839Z,26.60
2017-12-05T02:58:33.752Z,31.87
2017-12-05T03:01:02.248Z,34.05
2017-12-05T03:03:29.398Z,29.35
2017-12-05T03:05:56.803Z,29.08
2017-12-05T03:08:26.338Z,33.20
2017-12-05T03:10:53.426Z,27.30
2017-12-05T03:13:20.475Z,32.00
2017-12-05T03:15:47.563Z,32.70
2017-12-05T03:18:14.755Z,29.42
2017-12-05T03:20:41.712Z,32.08
2017-12-05T03:23:08.612Z,25.92
2017-12-05T03:25:36.247Z,32.25
2017-12-05T03:42:42.632Z,28.52
2017-12-05T03:45:09.560Z,33.00
2017-12-05T03:47:36.499Z,35.17
2017-12-05T03:50:03.598Z,29.70
2017-12-05T03:52:31.284Z,31.45
2017-12-05T03:54:58.252Z,31.73
2017-12-05T03:57:25.214Z,35.08
2017-12-05T03:59:52.104Z,29.75
2017-12-05T04:02:19.732Z,31.85
2017-12-05T04:04:46.740Z,31.37
2017-12-05T04:07:13.691Z,32.33
2017-12-05T04:09:42.879Z,33.80
2017-12-05T04:12:09.894Z,31.15
2017-12-05T04:14:37.655Z,33.22
2017-12-05T04:17:05.376Z,33.25
2017-12-05T04:19:34.220Z,28.12
2017-12-05T04:22:03.019Z,32.80
2017-12-05T04:24:31.662Z,32.55
2017-12-05T04:27:00.200Z,31.08
2017-12-05T04:29:29.825Z,29.95
2017-12-05T04:31:57.297Z,32.35
2017-12-05T04:34:26.373Z,33.47
2017-12-05T04:36:56.334Z,30.20
2017-12-05T04:39:26.161Z,31.35
2017-12-05T04:41:53.293Z,32.75
2017-12-05T04:44:23.432Z,31.77
2017-12-05T04:46:53.144Z,31.10
2017-12-05T04:49:22.366Z,35.15
2017-12-05T04:51:50.126Z,32.33
2017-12-05T04:54:20.175Z,29.23
2017-12-05T04:56:48.677Z,30.30
2017-12-05T04:59:17.836Z,31.58
2017-12-05T05:01:46.652Z,30.10
2017-12-05T05:04:16.446Z,33.80
2017-12-05T05:06:44.995Z,34.17
2017-12-05T05:09:11.937Z,32.38
2017-12-05T05:11:41.788Z,31.58
2017-12-05T05:14:10.575Z,32.20
2017-12-05T05:16:41.674Z,31.15
2017-12-05T05:19:14.886Z,28.30
2017-12-05T05:21:49.848Z,31.50
2017-12-05T05:24:25.161Z,31.45
2017-12-05T05:27:00.008Z,35.78
2017-12-05T05:29:40.433Z,32.33
2017-12-05T05:34:53.828Z,28.90
2017-12-05T05:37:31.647Z,34.92
2017-12-05T05:40:06.816Z,27.77
2017-12-05T05:42:39.459Z,29.40
2017-12-05T05:45:15.875Z,33.05
2017-12-05T05:47:51.815Z,30.52
2017-12-05T05:50:26.479Z,32.95
2017-12-05T05:53:02.227Z,33.17
2017-12-05T05:55:34.127Z,34.67
2017-12-05T05:58:05.094Z,34.25
2017-12-05T06:00:36.255Z,26.98
2017-12-05T06:03:08.877Z,28.17
2017-12-05T06:05:39.671Z,26.98
2017-12-05T06:08:07.424Z,30.52
2017-12-05T06:10:40.392Z,25.75
2017-12-05T06:13:08.183Z,30.80
2017-12-05T06:15:35.075Z,28.62
2017-12-05T06:18:01.986Z,34.97
2017-12-05T06:20:28.936Z,27.80
2017-12-05T06:22:55.892Z,32.92
2017-12-05T06:25:22.811Z,33.47
2017-12-05T06:27:49.753Z,33.42
2017-12-05T06:30:16.839Z,27.65
2017-12-05T06:32:43.711Z,27.37
2017-12-05T06:35:11.399Z,30.17
2017-12-05T06:37:38.262Z,29.05
2017-12-05T06:40:05.322Z,27.65
2017-12-05T06:42:32.183Z,32.03
2017-12-05T06:44:59.069Z,31.12
2017-12-05T06:47:26.109Z,29.48
2017-12-05T06:49:53.964Z,31.15
2017-12-05T06:52:21.053Z,50.38
2017-12-05T06:54:48.006Z,36.72
2017-12-05T06:57:14.991Z,35.42
2017-12-05T06:59:42.033Z,27.10
2017-12-05T07:02:09.071Z,31.35
2017-12-05T07:04:36.033Z,30.37
2017-12-05T07:07:02.964Z,30.33
2017-12-05T07:09:30.014Z,30.58
2017-12-05T07:11:59.568Z,31.73
2017-12-05T07:14:27.316Z,27.42
2017-12-05T07:16:54.296Z,29.50
2017-12-05T07:19:21.335Z,28.87
2017-12-05T07:22:00.736Z,28.02
2017-12-05T07:24:27.712Z,28.48
2017-12-05T07:26:57.856Z,31.05
2017-12-05T07:29:24.843Z,26.60
2017-12-05T07:32:04.120Z,33.20
2017-12-05T07:34:32.110Z,29.75
2017-12-05T07:36:59.192Z,31.58
2017-12-05T07:39:35.633Z,23.52
2017-12-05T07:44:48.191Z,28.45
2017-12-05T07:47:16.031Z,31.33
2017-12-05T07:49:43.017Z,31.00
2017-12-05T07:52:10.012Z,26.75
2017-12-05T07:54:42.906Z,26.90
2017-12-05T07:57:11.055Z,27.02
2017-12-05T07:59:40.837Z,28.70
2017-12-05T08:02:07.788Z,27.33
2017-12-05T08:04:34.800Z,23.08
2017-12-05T08:07:01.843Z,28.20
2017-12-05T08:09:28.939Z,27.50
2017-12-05T08:11:56.050Z,25.30
2017-12-05T08:14:23.123Z,27.70
2017-12-05T08:16:50.139Z,29.70
2017-12-05T08:19:17.263Z,29.08
2017-12-05T08:21:44.267Z,26.92
2017-12-05T08:24:11.351Z,28.92
2017-12-05T08:26:39.904Z,24.52
2017-12-05T08:29:07.104Z,21.95
2017-12-05T08:31:34.208Z,23.67
2017-12-05T08:34:01.241Z,24.77
2017-12-05T08:36:28.185Z,23.35
2017-12-05T08:38:55.251Z,20.95
2017-12-05T08:41:22.219Z,22.27
2017-12-05T08:43:50.017Z,19.75
2017-12-05T08:46:17.129Z,20.00
2017-12-05T08:48:44.109Z,20.70
2017-12-05T08:51:11.211Z,22.30
2017-12-05T08:53:38.198Z,21.67
2017-12-05T08:56:06.056Z,19.70
2017-12-05T08:58:33.121Z,31.00
2017-12-05T09:01:00.194Z,48.70
2017-12-05T09:03:27.216Z,31.07
2017-12-05T09:05:54.250Z,16.70
2017-12-05T09:08:22.009Z,16.33
2017-12-05T09:10:49.102Z,16.83
2017-12-05T09:13:16.073Z,18.10
2017-12-05T09:15:43.139Z,16.53
2017-12-05T09:18:10.077Z,14.53
2017-12-05T09:20:37.066Z,15.20
2017-12-05T09:23:04.850Z,16.17
2017-12-05T09:25:31.869Z,17.80
2017-12-05T09:27:58.935Z,16.37
2017-12-05T09:30:26.739Z,15.03
2017-12-05T09:32:53.728Z,16.83
2017-12-05T09:35:20.799Z,15.77
2017-12-05T09:37:47.800Z,16.13
2017-12-05T09:40:14.745Z,16.40
2017-12-05T09:42:41.874Z,14.87
2017-12-05T09:45:08.851Z,18.43
2017-12-05T09:47:35.970Z,16.13
2017-12-05T09:50:03.023Z,17.83
2017-12-05T09:52:30.088Z,14.17
2017-12-05T09:54:57.153Z,20.10
2017-12-05T09:57:24.226Z,15.77
2017-12-05T09:59:51.365Z,19.40
2017-12-05T10:02:18.375Z,17.37
2017-12-05T10:04:45.359Z,13.53
2017-12-05T10:07:12.371Z,16.73
2017-12-05T10:09:39.408Z,14.77
2017-12-05T10:12:06.387Z,13.80
2017-12-05T10:14:33.435Z,17.43
2017-12-05T10:17:00.476Z,14.10
2017-12-05T10:19:27.468Z,13.27
2017-12-05T10:21:54.541Z,15.90
2017-12-05T10:24:21.619Z,15.60
2017-12-05T10:26:48.657Z,18.10
2017-12-05T10:29:15.724Z,15.23
2017-12-05T10:31:42.754Z,16.97
2017-12-05T10:34:09.782Z,16.87
2017-12-05T10:36:36.868Z,15.53
2017-12-05T10:39:03.979Z,17.10
2017-12-05T10:41:30.971Z,16.63
2017-12-05T10:43:58.036Z,17.23
2017-12-05T10:46:25.062Z,17.10
2017-12-05T10:48:52.221Z,21.20
2017-12-05T10:51:19.239Z,18.20
2017-12-05T10:53:46.292Z,20.00
2017-12-05T10:56:13.335Z,23.00
2017-12-05T10:58:40.256Z,20.10
2017-12-05T11:01:07.233Z,19.30
2017-12-05T11:03:34.295Z,21.30
2017-12-05T11:06:01.213Z,20.13
2017-12-05T11:08:28.191Z,19.03
2017-12-05T11:10:55.243Z,21.35
2017-12-05T11:13:22.261Z,19.50
2017-12-05T11:15:49.144Z,18.73
2017-12-05T11:18:16.100Z,21.17
2017-12-05T11:20:43.158Z,18.30
2017-12-05T11:23:10.211Z,18.77
2017-12-05T11:25:37.240Z,21.47
2017-12-05T11:28:04.236Z,22.53
2017-12-05T11:30:31.221Z,24.33
2017-12-05T11:32:58.374Z,18.70
2017-12-05T11:35:25.288Z,20.10
2017-12-05T11:37:52.216Z,21.93
2017-12-05T11:40:19.243Z,21.07
2017-12-05T11:42:46.312Z,22.50
2017-12-05T11:45:13.336Z,21.10
2017-12-05T11:47:40.284Z,22.93
2017-12-05T11:50:07.283Z,23.20
2017-12-05T11:52:34.270Z,31.63
2017-12-05T11:55:06.956Z,22.90
2017-12-05T11:57:37.197Z,22.73
2017-12-05T12:00:06.955Z,26.80
2017-12-05T12:02:34.182Z,24.77
2017-12-05T12:05:01.064Z,26.57
2017-12-05T12:07:28.161Z,27.13
2017-12-05T12:09:55.057Z,27.40
2017-12-05T12:12:21.924Z,23.63
2017-12-05T12:14:48.936Z,24.27
2017-12-05T12:17:15.806Z,23.60
2017-12-05T12:19:42.750Z,22.73
2017-12-05T12:22:09.701Z,23.03
2017-12-05T12:24:36.608Z,26.70
2017-12-05T12:27:03.612Z,22.83
2017-12-05T12:29:30.501Z,21.90
2017-12-05T12:31:57.424Z,22.60
2017-12-05T12:34:24.420Z,21.63
2017-12-05T12:36:52.625Z,22.90
2017-12-05T12:39:20.364Z,25.80
2017-12-05T12:41:47.329Z,20.50
2017-12-05T12:44:14.681Z,22.03
2017-12-05T12:46:42.984Z,21.07
2017-12-05T12:49:16.674Z,21.60
2017-12-05T12:51:45.579Z,22.57
2017-12-05T12:54:26.373Z,18.60
2017-12-05T12:56:59.765Z,21.90
2017-12-05T12:59:30.043Z,21.67
2017-12-05T13:02:02.650Z,21.53
2017-12-05T13:04:36.397Z,20.80
2017-12-05T13:07:09.557Z,19.30
2017-12-05T13:09:38.596Z,18.90
2017-12-05T13:12:09.155Z,21.67
2017-12-05T13:14:50.040Z,19.30
2017-12-05T13:17:18.648Z,20.60
2017-12-05T13:19:56.944Z,19.63
2017-12-05T13:22:24.424Z,16.20
2017-12-05T13:24:52.154Z,21.50
2017-12-05T13:27:19.238Z,16.30
2017-12-05T13:29:46.596Z,21.07
2017-12-05T13:32:13.634Z,18.83
2017-12-05T13:34:44.925Z,18.10
2017-12-05T13:37:18.370Z,18.43
2017-12-05T13:39:46.590Z,19.13
2017-12-05T13:42:13.460Z,19.73
2017-12-05T13:44:40.377Z,22.33
2017-12-05T13:47:12.769Z,18.10
2017-12-05T13:49:42.960Z,19.10
2017-12-05T13:52:11.383Z,18.77
2017-12-05T13:54:38.303Z,23.40
2017-12-05T13:57:08.142Z,20.23
2017-12-05T13:59:35.352Z,18.73
2017-12-05T14:02:03.011Z,21.10
2017-12-05T14:04:38.487Z,16.83
2017-12-05T14:07:16.477Z,16.20
2017-12-05T14:09:47.224Z,16.20
2017-12-05T14:12:14.189Z,20.40
2017-12-05T14:14:41.185Z,17.05
2017-12-05T14:17:08.973Z,16.47
2017-12-05T14:19:35.881Z,14.03
2017-12-05T14:22:10.343Z,14.30
2017-12-05T14:24:37.367Z,17.37
2017-12-05T14:27:06.311Z,18.17
2017-12-05T14:29:33.200Z,13.67
2017-12-05T14:32:07.477Z,14.40
2017-12-05T14:34:36.604Z,14.23
2017-12-05T14:37:07.290Z,15.27
2017-12-05T14:39:36.834Z,16.77
2017-12-05T14:42:06.052Z,16.40
2017-12-05T14:44:33.169Z,15.07
2017-12-05T14:47:00.075Z,14.57
2017-12-05T14:49:27.032Z,12.90
2017-12-05T14:51:55.162Z,14.23
2017-12-05T14:54:30.446Z,15.13
2017-12-05T14:56:58.703Z,14.67
2017-12-05T14:59:26.440Z,17.87
2017-12-05T15:01:54.338Z,15.00
2017-12-05T15:04:21.429Z,15.20
2017-12-05T15:06:48.592Z,14.00
2017-12-05T15:09:15.489Z,18.97
2017-12-05T15:11:43.684Z,16.40
2017-12-05T15:14:10.652Z,14.77
2017-12-05T15:16:37.533Z,15.57
2017-12-05T15:19:05.517Z,13.67
2017-12-05T15:21:36.762Z,16.33
2017-12-05T15:24:05.221Z,18.27
2017-12-05T15:26:32.223Z,20.40
2017-12-05T15:29:03.586Z,17.70
2017-12-05T15:31:30.838Z,21.40
2017-12-05T15:34:00.081Z,15.50
2017-12-05T15:36:27.661Z,15.77
2017-12-05T15:38:56.438Z,16.27
2017-12-05T15:41:24.076Z,19.02
2017-12-05T15:43:51.703Z,18.97
2017-12-05T15:46:18.622Z,18.10
2017-12-05T15:48:46.123Z,18.87
2017-12-05T15:51:13.081Z,18.70
2017-12-05T15:53:40.144Z,20.23
2017-12-05T15:56:07.140Z,23.90
2017-12-05T15:58:39.243Z,21.77
2017-12-05T16:01:07.387Z,17.90
2017-12-05T16:03:36.534Z,19.73
2017-12-05T16:06:07.678Z,22.50
2017-12-05T16:08:38.112Z,23.77
2017-12-05T16:11:12.869Z,19.83
2017-12-05T16:13:41.279Z,20.27
2017-12-05T16:16:08.700Z,17.77
2017-12-05T16:18:40.239Z,19.90
2017-12-05T16:21:08.249Z,20.10
2017-12-05T16:23:35.200Z,24.20
2017-12-05T16:26:02.251Z,18.53
2017-12-05T16:28:31.491Z,19.70
2017-12-05T16:31:02.032Z,18.10
2017-12-05T16:33:30.416Z,19.00
2017-12-05T16:36:01.006Z,17.97
2017-12-05T16:38:28.097Z,20.63
2017-12-05T16:40:55.148Z,21.87
2017-12-05T16:43:24.367Z,19.03
2017-12-05T16:45:58.688Z,20.60
2017-12-05T16:48:31.125Z,21.20
2017-12-05T16:51:01.652Z,23.83
2017-12-05T16:53:34.075Z,20.97
2017-12-05T16:56:03.272Z,19.77
2017-12-05T16:58:30.216Z,22.52
2017-12-05T17:01:02.156Z,20.53
2017-12-05T17:03:37.817Z,19.37
2017-12-05T17:06:07.089Z,18.90
2017-12-05T17:08:34.170Z,19.63
2017-12-05T17:11:07.067Z,20.37
2017-12-05T17:13:34.579Z,20.80
2017-12-05T17:16:04.622Z,20.00
2017-12-05T17:18:34.178Z,30.67
2017-12-05T17:21:06.508Z,20.60
2017-12-05T17:23:34.366Z,18.80
2017-12-05T17:26:02.042Z,21.20
2017-12-05T17:28:37.794Z,21.60
2017-12-05T17:31:10.679Z,22.60
2017-12-05T17:33:40.119Z,22.00
2017-12-05T17:36:07.531Z,22.53
2017-12-05T17:38:35.192Z,20.47
2017-12-05T17:41:03.675Z,21.60
2017-12-05T17:43:31.369Z,20.05
2017-12-05T17:46:05.239Z,19.17
2017-12-05T17:48:34.159Z,18.03
2017-12-05T17:51:03.309Z,22.10
2017-12-05T17:53:31.286Z,19.25
2017-12-05T17:55:59.828Z,18.63
2017-12-05T17:58:29.641Z,21.83
2017-12-05T18:00:56.916Z,20.43
2017-12-05T18:03:23.912Z,18.40
2017-12-05T18:05:51.063Z,19.60
2017-12-05T18:08:18.789Z,23.23
2017-12-05T18:10:46.704Z,25.00
2017-12-05T18:13:14.611Z,26.05
2017-12-05T18:15:42.759Z,22.42
2017-12-05T18:18:09.813Z,26.30
2017-12-05T18:20:36.771Z,21.97
2017-12-05T18:23:04.766Z,18.93
2017-12-05T18:25:31.778Z,21.23
2017-12-05T18:27:58.831Z,21.30
2017-12-05T18:30:25.888Z,21.25
2017-12-05T18:32:52.888Z,22.00
2017-12-05T18:35:19.976Z,18.90
2017-12-05T18:37:46.980Z,20.65
2017-12-05T18:40:13.952Z,25.23
2017-12-05T18:42:41.750Z,22.65
2017-12-05T18:45:08.828Z,19.67
2017-12-05T18:47:35.976Z,20.17
2017-12-05T18:50:03.095Z,19.55
2017-12-05T18:52:30.104Z,20.55
2017-12-05T18:54:57.197Z,22.98
2017-12-05T18:57:24.185Z,20.00
2017-12-05T18:59:51.285Z,19.03
2017-12-05T19:02:18.254Z,19.70
2017-12-05T19:04:45.515Z,18.90
2017-12-05T19:07:12.483Z,22.05
2017-12-05T19:09:39.458Z,18.80
2017-12-05T19:12:07.316Z,20.73
2017-12-05T19:14:34.354Z,18.90
2017-12-05T19:17:01.416Z,22.27
2017-12-05T19:19:28.711Z,19.87
2017-12-05T19:21:55.830Z,22.33
2017-12-05T19:24:23.596Z,19.93
2017-12-05T19:26:55.644Z,22.75
2017-12-05T19:29:23.412Z,19.15
2017-12-05T19:31:55.009Z,23.97
2017-12-05T19:34:23.612Z,20.50
2017-12-05T19:36:50.909Z,20.83
2017-12-05T19:39:23.484Z,22.35
2017-12-05T19:41:56.599Z,23.20
2017-12-05T19:44:25.914Z,20.90
2017-12-05T19:46:53.187Z,20.40
2017-12-05T19:49:20.858Z,21.08
2017-12-05T19:51:49.234Z,21.97
2017-12-05T19:54:17.231Z,20.75
2017-12-05T19:56:48.222Z,22.17
2017-12-05T19:59:16.171Z,19.85
2017-12-05T20:01:44.137Z,19.90
2017-12-05T20:04:18.059Z,21.00
2017-12-05T20:06:53.193Z,21.85
2017-12-05T20:09:20.618Z,20.77
2017-12-05T20:11:48.551Z,20.92
2017-12-05T20:14:16.705Z,19.37
2017-12-05T20:16:44.198Z,23.60
2017-12-05T20:19:23.074Z,25.65
2017-12-05T20:21:51.431Z,25.12
2017-12-05T20:24:31.351Z,23.90
2017-12-05T20:27:00.527Z,21.42
2017-12-05T20:29:27.633Z,27.33
2017-12-05T20:31:54.850Z,22.60
2017-12-05T20:34:22.832Z,20.25
2017-12-05T20:36:51.775Z,23.05
2017-12-05T20:39:20.027Z,19.75
2017-12-05T20:41:47.418Z,25.45
2017-12-05T20:44:15.265Z,25.70
2017-12-05T20:46:43.063Z,28.50
2017-12-05T20:49:10.054Z,23.08
2017-12-05T20:51:37.068Z,25.08
2017-12-05T20:54:03.938Z,22.13
2017-12-05T20:56:30.891Z,21.80
2017-12-05T20:58:57.855Z,22.95
2017-12-05T21:01:24.759Z,21.15
2017-12-05T21:03:52.211Z,23.42
2017-12-05T21:06:19.243Z,24.48
2017-12-05T21:08:46.445Z,21.60
2017-12-05T21:11:13.465Z,23.42
2017-12-05T21:13:40.520Z,20.95
2017-12-05T21:16:07.611Z,25.53
2017-12-05T21:18:35.343Z,21.45
2017-12-05T21:21:02.444Z,19.63
2017-12-05T21:23:29.598Z,20.67
2017-12-05T21:26:01.622Z,25.02
2017-12-05T21:28:32.047Z,22.17
2017-12-05T21:30:59.118Z,25.75
2017-12-05T21:33:26.082Z,21.35
2017-12-05T21:35:54.021Z,22.85
2017-12-05T21:38:21.093Z,22.10
2017-12-05T21:40:48.203Z,22.90
2017-12-05T21:43:18.927Z,25.33
2017-12-05T21:45:45.937Z,25.77
2017-12-05T21:48:13.028Z,21.20
2017-12-05T21:50:39.967Z,22.95
2017-12-05T21:53:07.181Z,22.80
2017-12-05T21:55:34.844Z,21.20
2017-12-05T21:58:01.862Z,23.70
2017-12-05T22:00:32.666Z,20.55
2017-12-05T22:03:02.573Z,24.10
2017-12-05T22:05:32.657Z,22.65
2017-12-05T22:08:07.386Z,22.00
2017-12-05T22:10:36.616Z,23.23
2017-12-05T22:13:11.566Z,20.52
2017-12-05T22:15:42.502Z,26.70
2017-12-05T22:18:15.231Z,22.08
2017-12-05T22:20:45.967Z,23.23
2017-12-05T22:23:22.213Z,23.87
2017-12-05T22:25:55.527Z,19.90
2017-12-05T22:28:27.049Z,21.30
2017-12-05T22:30:55.265Z,23.25
2017-12-05T22:33:35.903Z,21.50
2017-12-05T22:36:06.823Z,22.55
2017-12-05T22:38:37.190Z,22.70
2017-12-05T22:41:08.888Z,21.48
2017-12-05T22:43:37.944Z,25.50
2017-12-05T22:46:09.635Z,23.02
2017-12-05T22:48:39.440Z,22.58
2017-12-05T22:51:06.479Z,22.00
2017-12-05T22:53:33.687Z,23.73
2017-12-05T22:56:00.810Z,21.60
2017-12-05T22:58:28.019Z,21.58
2017-12-05T23:00:55.126Z,24.65
2017-12-05T23:03:22.324Z,20.80
2017-12-05T23:05:49.588Z,22.25
2017-12-05T23:08:17.552Z,21.80
2017-12-05T23:10:48.410Z,22.25
2017-12-05T23:13:15.497Z,23.60
2017-12-05T23:15:42.544Z,25.40
2017-12-05T23:18:09.688Z,24.83
2017-12-05T23:20:36.705Z,20.08
2017-12-05T23:23:15.429Z,25.42
2017-12-05T23:25:44.788Z,21.45
2017-12-05T23:28:12.084Z,26.25
2017-12-05T23:30:47.119Z,20.62
2017-12-05T23:33:19.203Z,26.17
2017-12-05T23:35:53.358Z,23.17
2017-12-05T23:38:22.760Z,19.33
2017-12-05T23:40:58.589Z,20.97
2017-12-05T23:43:35.512Z,22.83
2017-12-05T23:46:12.834Z,20.90
2017-12-05T23:48:48.735Z,21.98
2017-12-05T23:51:24.562Z,20.75
2017-12-05T23:53:54.059Z,17.85
2017-12-05T23:56:24.705Z,17.92
2017-12-05T23:58:52.056Z,19.67
